Time;durP1;ratioP1;P1;durP2;ratioP2;P2;SDS_P1;SDS_P2;PMS_P1;PMS_P2;Temp;Humidity;BMP_temperature;BMP_pressure;BME280_temperature;BME280_humidity;BME280_pressure;Samples;Min_cycle;Max_cycle;Signal;HPM_P1;HPM_P2
2022/06/10 00:00:30;;;;;;;3.85;0.50;;;21.10;96.70;;;;;;5101869;27;20071;-84
2022/06/10 00:02:58;;;;;;;1.92;0.50;;;21.10;96.70;;;;;;5116643;27;20047;-85
2022/06/10 00:05:28;;;;;;;1.65;0.30;;;21.10;96.70;;;;;;5120777;27;20054;-83
2022/06/10 00:07:56;;;;;;;1.77;0.70;;;21.20;96.70;;;;;;5115409;27;20040;-84
2022/06/10 00:10:27;;;;;;;1.10;0.60;;;21.30;96.70;;;;;;5118064;27;20674;-82
2022/06/10 00:12:55;;;;;;;3.78;0.85;;;21.30;96.70;;;;;;5098384;27;20051;-83
2022/06/10 00:15:23;;;;;;;2.20;0.55;;;21.30;96.70;;;;;;5115963;27;20054;-81
2022/06/10 00:17:51;;;;;;;1.40;0.45;;;21.30;96.70;;;;;;5128470;27;20059;-83
2022/06/10 00:20:21;;;;;;;1.85;0.60;;;21.30;96.70;;;;;;5118574;27;20049;-82
2022/06/10 00:22:48;;;;;;;0.77;0.57;;;21.30;96.70;;;;;;5104208;27;20072;-83
2022/06/10 00:25:17;;;;;;;1.55;0.47;;;21.40;96.70;;;;;;5116038;27;20416;-84
2022/06/10 00:27:48;;;;;;;0.95;0.40;;;21.40;96.70;;;;;;5119780;27;20042;-84
2022/06/10 00:30:18;;;;;;;4.22;0.60;;;21.40;96.70;;;;;;5120322;27;20046;-83
2022/06/10 00:32:45;;;;;;;0.93;0.30;;;21.30;96.70;;;;;;5109448;27;20051;-84
2022/06/10 00:35:14;;;;;;;1.65;0.35;;;21.40;96.70;;;;;;5138742;27;20038;-82
2022/06/10 00:37:42;;;;;;;2.03;0.50;;;21.40;96.70;;;;;;5119083;27;20050;-84
2022/06/10 00:40:15;;;;;;;0.90;0.40;;;21.30;96.70;;;;;;5111417;27;20053;-83
2022/06/10 00:42:50;;;;;;;2.45;0.50;;;21.30;96.70;;;;;;5122529;27;20043;-84
2022/06/10 00:45:54;;;;;;;2.78;0.70;;;21.30;96.70;;;;;;5102276;27;20496;-84
2022/06/10 00:48:28;;;;;;;1.25;0.30;;;21.30;96.70;;;;;;5137424;27;20123;-83
2022/06/10 00:50:58;;;;;;;1.25;0.50;;;21.30;96.70;;;;;;5120544;27;20039;-84
2022/06/10 00:53:31;;;;;;;1.92;0.50;;;21.30;96.70;;;;;;5118975;27;20046;-83
2022/06/10 00:56:04;;;;;;;9.43;0.95;;;21.20;96.70;;;;;;5120588;27;20039;-84
2022/06/10 00:58:40;;;;;;;1.27;0.40;;;21.20;96.70;;;;;;5115369;27;20455;-83
2022/06/10 01:01:11;;;;;;;0.63;0.20;;;21.10;96.70;;;;;;5124097;27;20142;-84
2022/06/10 01:03:41;;;;;;;1.80;0.45;;;20.80;96.70;;;;;;5139477;27;20030;-84
2022/06/10 01:06:09;;;;;;;2.53;0.70;;;20.70;96.70;;;;;;5118524;27;20516;-83
2022/06/10 01:08:38;;;;;;;1.58;0.40;;;20.70;96.70;;;;;;5131414;27;20031;-84
2022/06/10 01:11:28;;;;;;;1.10;0.40;;;20.70;96.70;;;;;;5123772;27;20108;-84
2022/06/10 01:14:08;;;;;;;1.23;0.40;;;20.70;96.70;;;;;;5119054;27;20090;-83
2022/06/10 01:16:42;;;;;;;3.22;0.68;;;20.70;96.70;;;;;;5099295;27;20066;-84
2022/06/10 01:19:31;;;;;;;2.40;0.40;;;20.70;96.70;;;;;;5132245;27;20106;-84
2022/06/10 01:22:35;;;;;;;0.70;0.43;;;20.70;96.70;;;;;;5115000;27;20070;-84
2022/06/10 01:25:32;;;;;;;2.05;0.50;;;20.70;96.70;;;;;;5062012;28;20529;-83
2022/06/10 01:28:12;;;;;;;2.88;0.50;;;20.50;96.70;;;;;;5067746;28;20495;-83
2022/06/10 01:31:10;;;;;;;1.00;0.30;;;20.40;96.70;;;;;;5069673;28;20118;-84
2022/06/10 01:33:43;;;;;;;;;;;20.40;96.70;;;;;;5062779;28;20505;-82
2022/06/10 01:36:20;;;;;;;1.38;0.22;;;20.40;96.70;;;;;;5076292;28;20030;-82
2022/06/10 01:38:58;;;;;;;2.42;0.35;;;20.40;96.70;;;;;;5045604;28;20100;-82
2022/06/10 01:41:33;;;;;;;2.85;0.40;;;20.40;96.70;;;;;;5054558;28;20059;-83
2022/06/10 01:44:13;;;;;;;2.05;0.30;;;20.40;96.70;;;;;;5122426;27;20500;-84
2022/06/10 01:46:51;;;;;;;3.08;0.50;;;20.40;96.70;;;;;;5112033;27;20454;-82
2022/06/10 01:49:24;;;;;;;2.38;0.30;;;20.50;96.70;;;;;;5114738;27;20087;-85
2022/06/10 01:51:58;;;;;;;2.25;0.30;;;20.50;96.70;;;;;;5120755;27;20051;-85
2022/06/10 01:54:33;;;;;;;3.05;0.43;;;20.40;96.70;;;;;;5136552;27;20047;-83
2022/06/10 01:57:06;;;;;;;1.67;0.35;;;20.40;96.70;;;;;;5124857;27;20043;-83
2022/06/10 01:59:39;;;;;;;1.13;0.38;;;20.40;96.70;;;;;;5118607;27;20691;-84
2022/06/10 02:02:13;;;;;;;2.45;0.50;;;20.30;96.70;;;;;;5133211;27;20046;-85
2022/06/10 02:04:46;;;;;;;1.17;0.30;;;20.30;96.70;;;;;;5124678;27;20042;-85
2022/06/10 02:07:17;;;;;;;1.42;0.35;;;20.40;96.70;;;;;;5119907;27;20047;-84
2022/06/10 02:09:51;;;;;;;2.33;0.40;;;20.40;96.70;;;;;;5132007;27;20123;-84
2022/06/10 02:12:27;;;;;;;1.13;0.30;;;20.40;96.70;;;;;;5116104;27;20047;-84
2022/06/10 02:14:59;;;;;;;1.48;0.30;;;20.40;96.70;;;;;;5128972;27;20039;-84
2022/06/10 02:17:36;;;;;;;1.33;0.40;;;20.40;96.70;;;;;;5118810;27;20057;-84
2022/06/10 02:20:11;;;;;;;1.15;0.38;;;20.30;96.70;;;;;;5119498;27;20167;-84
2022/06/10 02:22:45;;;;;;;1.38;0.30;;;20.30;96.70;;;;;;5108426;27;20049;-83
2022/06/10 02:25:19;;;;;;;0.55;0.30;;;20.30;96.70;;;;;;5113561;27;20566;-83
2022/06/10 02:27:49;;;;;;;1.20;0.30;;;20.30;96.70;;;;;;5116693;27;20054;-83
2022/06/10 02:30:20;;;;;;;1.35;0.40;;;20.10;96.70;;;;;;5107131;27;20088;-83
2022/06/10 02:32:50;;;;;;;1.05;0.30;;;20.00;96.70;;;;;;5115985;27;20520;-84
2022/06/10 02:35:19;;;;;;;1.27;0.38;;;20.00;96.70;;;;;;5129258;27;20039;-83
2022/06/10 02:37:57;;;;;;;0.93;0.20;;;20.00;96.70;;;;;;5107210;27;20059;-84
2022/06/10 02:40:30;;;;;;;2.15;0.28;;;20.00;96.70;;;;;;5103884;27;20067;-84
2022/06/10 02:43:08;;;;;;;0.98;0.22;;;20.00;96.70;;;;;;5129591;27;20762;-84
2022/06/10 02:45:47;;;;;;;0.70;0.20;;;20.00;96.70;;;;;;5102738;27;20047;-83
2022/06/10 02:48:28;;;;;;;0.60;0.32;;;19.90;96.70;;;;;;5141686;27;20073;-83
2022/06/10 02:50:57;;;;;;;1.48;0.40;;;19.90;96.70;;;;;;5120317;27;20049;-82
2022/06/10 02:53:26;;;;;;;1.38;0.50;;;19.90;96.70;;;;;;5118256;27;20038;-84
2022/06/10 02:55:54;;;;;;;1.15;0.32;;;19.90;96.70;;;;;;5127940;27;20119;-83
2022/06/10 03:01:22;;;;;;;1.95;0.20;;;19.70;96.70;;;;;;5139194;27;20053;-84
2022/06/10 03:04:06;;;;;;;9.95;0.85;;;19.70;96.70;;;;;;5134932;27;20039;-83
2022/06/10 03:06:45;;;;;;;0.45;0.35;;;19.60;96.70;;;;;;5134961;27;20039;-84
2022/06/10 03:09:18;;;;;;;0.77;0.20;;;19.60;96.70;;;;;;5105169;27;20055;-83
2022/06/10 03:11:56;;;;;;;0.95;0.20;;;19.60;96.70;;;;;;5126520;27;20062;-84
2022/06/10 03:14:39;;;;;;;0.50;0.20;;;19.50;96.70;;;;;;5120537;27;20067;-84
2022/06/10 03:17:16;;;;;;;2.58;0.25;;;19.50;96.70;;;;;;5122768;27;20050;-83
2022/06/10 03:19:54;;;;;;;1.10;0.25;;;19.40;96.70;;;;;;5119244;27;20047;-84
2022/06/10 03:22:38;;;;;;;0.60;0.28;;;19.40;96.70;;;;;;5146211;27;20034;-83
2022/06/10 03:25:18;;;;;;;2.38;0.25;;;19.40;96.70;;;;;;5132772;27;20049;-84
2022/06/10 03:28:00;;;;;;;1.75;0.30;;;19.40;96.70;;;;;;5122186;27;20035;-84
2022/06/10 03:30:33;;;;;;;1.67;0.30;;;19.40;96.70;;;;;;5119269;27;20424;-84
2022/06/10 03:33:08;;;;;;;1.48;0.50;;;19.30;96.70;;;;;;5121686;27;20125;-84
2022/06/10 03:35:44;;;;;;;2.00;0.60;;;19.30;96.70;;;;;;5113855;27;20066;-84
2022/06/10 03:38:13;;;;;;;2.42;0.60;;;19.40;96.70;;;;;;5113108;27;20043;-84
2022/06/10 03:40:42;;;;;;;2.42;0.90;;;19.30;96.70;;;;;;5121911;27;20667;-84
2022/06/10 03:43:14;;;;;;;0.70;0.45;;;19.30;96.70;;;;;;5117716;27;20046;-83
2022/06/10 03:45:45;;;;;;;3.13;0.40;;;19.40;96.70;;;;;;5102634;27;20476;-83
2022/06/10 03:48:17;;;;;;;1.80;0.43;;;19.40;96.70;;;;;;5139904;27;20047;-84
2022/06/10 03:50:48;;;;;;;0.40;0.30;;;19.40;96.70;;;;;;5134635;27;20055;-83
2022/06/10 03:53:19;;;;;;;2.17;0.32;;;19.40;96.70;;;;;;5133435;27;20058;-84
2022/06/10 03:55:47;;;;;;;1.88;0.35;;;19.50;96.70;;;;;;5114077;27;20039;-82
2022/06/10 03:58:16;;;;;;;1.55;0.55;;;19.50;96.70;;;;;;5100781;27;20155;-84
2022/06/10 04:00:45;;;;;;;3.90;1.08;;;19.50;96.70;;;;;;5130357;27;20245;-83
2022/06/10 04:03:13;;;;;;;1.13;0.40;;;19.50;96.70;;;;;;5134393;27;20088;-84
2022/06/10 04:05:42;;;;;;;0.80;0.45;;;19.50;96.70;;;;;;5121407;27;20073;-84
2022/06/10 04:08:31;;;;;;;1.67;0.30;;;19.40;96.70;;;;;;5132859;27;20039;-84
2022/06/10 04:11:00;;;;;;;1.60;0.50;;;19.30;96.70;;;;;;5123752;27;20048;-82
2022/06/10 04:13:28;;;;;;;1.17;0.38;;;19.40;96.70;;;;;;5134817;27;20047;-83
2022/06/10 04:15:56;;;;;;;1.13;0.40;;;19.30;96.70;;;;;;5133909;27;20049;-84
2022/06/10 04:18:25;;;;;;;1.13;0.30;;;19.20;96.70;;;;;;5134019;27;21470;-84
2022/06/10 04:20:53;;;;;;;1.10;0.40;;;19.30;96.70;;;;;;5118569;27;20189;-83
2022/06/10 04:23:21;;;;;;;2.40;0.47;;;19.50;96.70;;;;;;5124998;27;20038;-83
2022/06/10 04:25:51;;;;;;;1.45;0.45;;;19.50;96.70;;;;;;5101130;27;20061;-83
2022/06/10 04:28:19;;;;;;;1.75;0.40;;;19.60;96.70;;;;;;5121170;27;20042;-83
2022/06/10 04:30:49;;;;;;;2.17;0.38;;;19.60;96.70;;;;;;5118851;27;20125;-82
2022/06/10 04:33:17;;;;;;;0.85;0.40;;;19.60;96.70;;;;;;5130468;27;20062;-84
2022/06/10 04:35:48;;;;;;;2.03;0.30;;;19.50;96.70;;;;;;5120209;27;20054;-84
2022/06/10 04:38:19;;;;;;;0.60;0.43;;;19.50;96.70;;;;;;5137996;27;20039;-84
2022/06/10 04:40:48;;;;;;;1.38;0.50;;;19.40;96.70;;;;;;5113617;27;20050;-82
2022/06/10 04:43:18;;;;;;;2.38;0.40;;;19.50;96.70;;;;;;5111340;27;20515;-83
2022/06/10 04:45:50;;;;;;;0.70;0.35;;;19.30;96.70;;;;;;5121514;27;20039;-83
2022/06/10 04:48:18;;;;;;;2.05;0.40;;;19.30;96.70;;;;;;5104493;27;20038;-82
2022/06/10 04:50:49;;;;;;;0.65;0.43;;;19.30;96.70;;;;;;5116009;27;20041;-84
2022/06/10 04:53:17;;;;;;;2.97;0.60;;;19.40;96.70;;;;;;5104254;27;20134;-83
2022/06/10 04:55:46;;;;;;;4.35;0.47;;;19.50;96.70;;;;;;5132805;27;20035;-84
2022/06/10 04:58:14;;;;;;;2.10;0.50;;;19.60;96.70;;;;;;5125675;27;20046;-84
2022/06/10 05:00:48;;;;;;;1.77;0.52;;;19.50;96.70;;;;;;5119368;27;20070;-84
2022/06/10 05:03:17;;;;;;;1.55;0.50;;;19.70;96.70;;;;;;5136598;27;20425;-82
2022/06/10 05:05:45;;;;;;;2.97;0.80;;;19.80;96.70;;;;;;5120791;27;20404;-83
2022/06/10 05:08:15;;;;;;;2.65;0.70;;;19.80;96.70;;;;;;5120010;27;20035;-83
2022/06/10 05:10:44;;;;;;;3.88;1.08;;;19.90;96.70;;;;;;5119191;27;20058;-83
2022/06/10 05:13:12;;;;;;;2.28;0.88;;;19.90;96.70;;;;;;5112827;27;20039;-84
2022/06/10 05:15:40;;;;;;;4.13;1.20;;;20.00;96.70;;;;;;5117753;27;20078;-83
2022/06/10 05:18:11;;;;;;;6.03;0.82;;;20.20;96.70;;;;;;5112701;27;20058;-84
2022/06/10 05:20:41;;;;;;;4.05;1.38;;;20.10;96.70;;;;;;5121431;27;20545;-83
2022/06/10 05:23:12;;;;;;;3.75;1.00;;;20.10;96.70;;;;;;5128267;27;20039;-82
2022/06/10 05:25:40;;;;;;;3.13;1.00;;;20.10;96.70;;;;;;5142777;27;20082;-83
2022/06/10 05:28:11;;;;;;;3.83;0.90;;;20.10;96.70;;;;;;5139160;27;20074;-83
2022/06/10 05:30:40;;;;;;;2.50;0.80;;;20.10;96.70;;;;;;5111889;27;20047;-83
2022/06/10 05:33:10;;;;;;;2.28;1.08;;;20.00;96.70;;;;;;5115091;27;20043;-83
2022/06/10 05:35:39;;;;;;;2.50;0.70;;;19.90;96.70;;;;;;5099907;27;20145;-82
2022/06/10 05:38:07;;;;;;;1.90;0.85;;;20.00;96.70;;;;;;5116018;27;20046;-83
2022/06/10 05:40:37;;;;;;;2.92;1.13;;;20.00;96.70;;;;;;5102157;27;20058;-84
2022/06/10 05:43:05;;;;;;;4.32;1.23;;;20.10;96.70;;;;;;5114503;27;20057;-82
2022/06/10 05:45:40;;;;;;;4.63;1.77;;;20.00;96.70;;;;;;5120948;27;20385;-84
2022/06/10 05:48:11;;;;;;;4.68;1.90;;;19.90;96.70;;;;;;5118081;27;20043;-83
2022/06/10 05:50:42;;;;;;;3.92;1.83;;;19.80;96.70;;;;;;5108190;27;20043;-83
2022/06/10 05:53:12;;;;;;;3.92;1.50;;;19.80;96.70;;;;;;5107190;27;20074;-84
2022/06/10 05:55:40;;;;;;;4.85;1.50;;;19.80;96.70;;;;;;5114075;27;20050;-83
2022/06/10 05:58:08;;;;;;;3.80;1.13;;;19.80;96.70;;;;;;5114230;27;20071;-83
2022/06/10 06:00:37;;;;;;;4.88;1.40;;;19.70;96.70;;;;;;5125701;27;20057;-84
2022/06/10 06:03:05;;;;;;;2.88;1.48;;;19.70;96.70;;;;;;5134051;27;20455;-83
2022/06/10 06:05:36;;;;;;;8.13;1.42;;;19.90;96.70;;;;;;5120229;27;20077;-83
2022/06/10 06:08:05;;;;;;;4.05;1.52;;;20.00;96.70;;;;;;5116243;27;20057;-84
2022/06/10 06:10:33;;;;;;;4.00;1.70;;;20.10;96.70;;;;;;5106011;27;20038;-84
2022/06/10 06:13:01;;;;;;;7.53;2.50;;;20.30;96.70;;;;;;5135629;27;20054;-83
2022/06/10 06:15:30;;;;;;;4.57;1.70;;;20.50;96.70;;;;;;5131329;27;20043;-84
2022/06/10 06:17:58;;;;;;;4.45;1.45;;;20.60;96.70;;;;;;5123337;27;20054;-83
2022/06/10 06:20:27;;;;;;;7.95;1.80;;;20.80;96.70;;;;;;5115392;27;20130;-83
2022/06/10 06:22:57;;;;;;;4.63;1.95;;;20.80;96.70;;;;;;5119232;27;20051;-82
2022/06/10 06:25:25;;;;;;;6.45;1.90;;;20.90;96.70;;;;;;5095257;27;20103;-84
2022/06/10 06:27:53;;;;;;;7.82;2.28;;;21.10;96.70;;;;;;5105958;27;20050;-84
2022/06/10 06:30:30;;;;;;;5.25;1.60;;;21.30;96.70;;;;;;5130020;27;20043;-83
2022/06/10 06:32:59;;;;;;;7.20;2.03;;;21.30;96.70;;;;;;5121111;27;20130;-84
2022/06/10 06:35:27;;;;;;;6.43;2.05;;;21.50;96.70;;;;;;5135157;27;20485;-84
2022/06/10 06:37:58;;;;;;;5.07;2.60;;;21.60;96.70;;;;;;5114936;28;20151;-84
2022/06/10 06:40:26;;;;;;;9.77;3.65;;;21.70;96.70;;;;;;5098819;27;20560;-84
2022/06/10 06:42:54;;;;;;;11.88;4.30;;;21.80;96.70;;;;;;5119185;27;20219;-84
2022/06/10 06:45:23;;;;;;;12.35;4.85;;;21.90;96.70;;;;;;5097031;27;20042;-82
2022/06/10 06:48:01;;;;;;;15.95;5.15;;;22.00;96.70;;;;;;5127347;27;20122;-81
2022/06/10 06:50:32;;;;;;;7.82;3.15;;;22.10;96.70;;;;;;5121303;27;20067;-80
2022/06/10 06:53:02;;;;;;;8.60;2.40;;;22.10;96.70;;;;;;5136061;27;20039;-82
2022/06/10 06:55:36;;;;;;;9.38;2.00;;;22.10;96.70;;;;;;5115695;27;20511;-80
2022/06/10 06:58:05;;;;;;;7.07;2.10;;;22.30;96.70;;;;;;5114684;27;20146;-81
2022/06/10 07:00:33;;;;;;;7.38;2.42;;;22.40;96.70;;;;;;5114699;27;20065;-80
2022/06/10 07:03:02;;;;;;;7.22;2.33;;;22.50;96.70;;;;;;5112511;27;20399;-83
2022/06/10 07:05:31;;;;;;;8.05;2.95;;;22.50;96.70;;;;;;5112347;27;20043;-82
2022/06/10 07:07:59;;;;;;;8.32;2.38;;;22.60;96.70;;;;;;5101685;27;20055;-82
2022/06/10 07:10:29;;;;;;;6.28;1.73;;;22.70;96.70;;;;;;5117890;27;20073;-82
2022/06/10 07:12:58;;;;;;;1.58;0.80;;;22.90;96.70;;;;;;5139178;27;20046;-82
2022/06/10 07:15:26;;;;;;;2.33;0.50;;;23.10;96.70;;;;;;5113465;27;20062;-82
2022/06/10 07:17:53;;;;;;;1.13;0.50;;;23.30;96.70;;;;;;5110056;27;20062;-82
2022/06/10 07:20:24;;;;;;;3.60;0.30;;;23.50;96.70;;;;;;5129336;27;20126;-80
2022/06/10 07:22:52;;;;;;;2.60;0.50;;;23.60;96.70;;;;;;5095659;27;20063;-79
2022/06/10 07:25:21;;;;;;;3.20;0.30;;;23.80;96.70;;;;;;5096830;27;20130;-83
2022/06/10 07:27:52;;;;;;;0.50;0.10;;;23.90;96.70;;;;;;5131116;27;20047;-82
2022/06/10 07:30:22;;;;;;;0.70;0.15;;;24.10;96.70;;;;;;5109463;27;20100;-82
2022/06/10 07:32:50;;;;;;;1.85;0.08;;;24.20;95.60;;;;;;5135207;27;20553;-81
2022/06/10 07:35:20;;;;;;;2.03;0.15;;;24.30;95.50;;;;;;5099729;27;20046;-84
2022/06/10 07:37:50;;;;;;;0.35;0.13;;;24.30;95.30;;;;;;5117677;27;20055;-81
2022/06/10 07:43:42;;;;;;;1.38;0.17;;;24.20;95.90;;;;;;5134243;27;20030;-81
2022/06/10 07:46:16;;;;;;;3.92;0.30;;;24.10;95.50;;;;;;5109131;27;20039;-81
2022/06/10 07:48:45;;;;;;;1.20;0.30;;;24.10;96.70;;;;;;5115678;27;20042;-79
2022/06/10 07:51:13;;;;;;;2.65;0.28;;;24.00;96.50;;;;;;5137717;27;20130;-80
2022/06/10 07:53:41;;;;;;;0.32;0.10;;;24.10;96.50;;;;;;5119895;27;20548;-79
2022/06/10 07:56:13;;;;;;;0.65;0.20;;;24.10;95.80;;;;;;5131437;27;20047;-79
2022/06/10 07:58:43;;;;;;;1.88;0.30;;;24.20;96.50;;;;;;5138629;27;20035;-78
2022/06/10 08:01:11;;;;;;;2.42;0.20;;;24.30;96.70;;;;;;5114913;27;20043;-79
2022/06/10 08:03:47;;;;;;;1.08;0.15;;;24.40;96.70;;;;;;5112866;27;20039;-79
2022/06/10 08:06:16;;;;;;;3.60;0.30;;;24.40;96.70;;;;;;5129321;27;20039;-79
2022/06/10 08:08:44;;;;;;;1.27;0.20;;;24.40;96.70;;;;;;5115081;27;20138;-79
2022/06/10 08:11:12;;;;;;;1.17;0.20;;;24.40;96.70;;;;;;5115144;27;20365;-78
2022/06/10 08:13:41;;;;;;;0.80;0.25;;;24.40;96.70;;;;;;5116104;27;20047;-78
2022/06/10 08:16:09;;;;;;;1.42;0.10;;;24.50;96.70;;;;;;5115808;27;20125;-79
2022/06/10 08:18:38;;;;;;;0.57;0.10;;;24.60;96.70;;;;;;5134600;27;20047;-79
2022/06/10 08:23:56;;;;;;;2.13;0.10;;;24.80;96.70;;;;;;5133098;27;20127;-79
2022/06/10 08:26:25;;;;;;;0.82;0.25;;;24.80;96.30;;;;;;5130521;27;20491;-78
2022/06/10 08:28:54;;;;;;;1.38;0.10;;;24.80;96.60;;;;;;5123544;27;20042;-78
2022/06/10 08:31:22;;;;;;;0.73;0.20;;;24.80;96.30;;;;;;5130592;27;20477;-78
2022/06/10 08:33:50;;;;;;;5.30;1.25;;;24.80;96.30;;;;;;5121377;27;20147;-79
2022/06/10 08:36:18;;;;;;;0.40;0.28;;;24.80;96.00;;;;;;5137270;27;20491;-78
2022/06/10 08:38:50;;;;;;;0.52;0.10;;;24.90;96.10;;;;;;5122339;27;20054;-79
2022/06/10 08:41:26;;;;;;;1.40;0.30;;;24.90;95.40;;;;;;5112909;27;20039;-79
2022/06/10 08:44:10;;;;;;;1.95;0.20;;;24.90;95.60;;;;;;5136434;27;20035;-79
2022/06/10 08:47:11;;;;;;;1.42;0.20;;;25.00;95.90;;;;;;5117560;27;20055;-78
2022/06/10 08:50:05;;;;;;;2.47;0.20;;;25.00;95.80;;;;;;5091031;27;20059;-78
2022/06/10 08:52:39;;;;;;;0.95;0.20;;;25.00;95.00;;;;;;5089035;27;21054;-79
2022/06/10 08:55:36;;;;;;;2.45;0.20;;;24.90;95.10;;;;;;5118591;27;20122;-79
2022/06/10 08:58:13;;;;;;;0.77;0.25;;;25.10;94.60;;;;;;5117092;27;20057;-78
2022/06/10 09:00:44;;;;;;;2.10;0.10;;;25.20;94.60;;;;;;5113794;27;20047;-80
2022/06/10 09:03:17;;;;;;;4.07;0.30;;;25.20;94.10;;;;;;5118677;27;20051;-79
2022/06/10 09:05:48;;;;;;;4.03;1.00;;;25.30;93.60;;;;;;5118399;27;20042;-79
2022/06/10 09:08:18;;;;;;;1.65;0.20;;;25.50;93.30;;;;;;5115592;27;20053;-80
2022/06/10 09:10:54;;;;;;;0.95;0.20;;;25.40;93.60;;;;;;5117484;27;20066;-78
2022/06/10 09:13:34;;;;;;;0.77;0.30;;;25.40;93.00;;;;;;5133977;27;20710;-78
2022/06/10 09:16:12;;;;;;;1.85;0.35;;;25.50;93.00;;;;;;5123898;27;20074;-78
2022/06/10 09:18:50;;;;;;;1.98;0.30;;;25.50;92.50;;;;;;5129032;27;20544;-80
2022/06/10 09:21:25;;;;;;;6.05;0.40;;;25.60;91.60;;;;;;5120393;27;20123;-79
2022/06/10 09:26:56;;;;;;;8.13;0.20;;;25.60;90.90;;;;;;4869009;29;20614;-83
2022/06/10 09:29:24;;;;;;;2.08;0.30;;;25.70;91.80;;;;;;4885932;29;20049;-82
2022/06/10 09:32:08;;;;;;;2.00;0.20;;;25.70;91.50;;;;;;4870772;29;20059;-81
2022/06/10 09:34:51;;;;;;;2.45;0.20;;;25.60;91.50;;;;;;4887122;29;20052;-82
2022/06/10 09:37:31;;;;;;;3.25;0.25;;;25.50;91.30;;;;;;4887238;29;20112;-81
2022/06/10 09:43:07;;;;;;;2.28;0.10;;;25.40;91.60;;;;;;4887627;29;20230;-82
2022/06/10 09:45:40;;;;;;;3.35;0.20;;;25.40;91.20;;;;;;4884141;29;20041;-81
2022/06/10 09:48:24;;;;;;;0.70;0.10;;;25.60;91.80;;;;;;4869895;29;20080;-81
2022/06/10 09:50:58;;;;;;;2.72;0.30;;;25.70;91.60;;;;;;4887641;29;20553;-81
2022/06/10 09:53:39;;;;;;;0.52;0.10;;;25.90;91.50;;;;;;4901326;29;20052;-82
2022/06/10 09:56:28;;;;;;;3.25;0.10;;;26.00;92.10;;;;;;4868878;29;20093;-81
2022/06/10 09:59:08;;;;;;;2.05;0.30;;;26.10;91.70;;;;;;4901659;29;20081;-82
2022/06/10 10:01:41;;;;;;;1.95;0.20;;;26.10;92.00;;;;;;4884936;29;20049;-81
2022/06/10 10:04:29;;;;;;;0.10;0.00;;;26.20;91.70;;;;;;4887440;29;20059;-82
2022/06/10 10:07:03;;;;;;;2.30;0.17;;;26.30;92.10;;;;;;4889442;29;20079;-82
2022/06/10 10:09:48;;;;;;;1.27;0.43;;;26.40;90.90;;;;;;4871593;29;20080;-83
2022/06/10 10:12:45;;;;;;;1.35;0.20;;;26.50;91.40;;;;;;4887932;29;20047;-80
2022/06/10 10:15:19;;;;;;;;;;;26.40;91.20;;;;;;4840075;29;20585;-83
2022/06/10 10:18:29;;;;;;;0.77;0.10;;;26.20;91.00;;;;;;4881302;29;20393;-82
2022/06/10 10:21:34;;;;;;;1.73;0.05;;;26.10;91.50;;;;;;4863918;29;20067;-82
2022/06/10 10:24:04;;;;;;;1.80;0.10;;;26.00;91.70;;;;;;4867481;29;20068;-82
2022/06/10 10:26:39;;;;;;;0.10;0.00;;;26.00;91.70;;;;;;4869847;29;20087;-82
2022/06/10 10:29:13;;;;;;;1.00;0.10;;;26.30;91.80;;;;;;4867226;29;20472;-81
2022/06/10 10:31:46;;;;;;;3.35;0.20;;;26.50;91.70;;;;;;4869313;29;20048;-80
2022/06/10 10:34:19;;;;;;;0.10;0.10;;;26.50;91.00;;;;;;4897158;29;20114;-83
2022/06/10 10:36:51;;;;;;;0.40;0.00;;;26.40;91.40;;;;;;4884058;29;20150;-82
2022/06/10 10:39:29;;;;;;;1.48;0.45;;;26.30;91.50;;;;;;4866719;29;20060;-81
2022/06/10 10:42:01;;;;;;;1.88;0.08;;;26.70;92.20;;;;;;4868548;29;20045;-82
2022/06/10 10:44:38;;;;;;;2.80;0.20;;;26.90;92.00;;;;;;4867334;29;20688;-80
2022/06/10 10:47:18;;;;;;;1.25;0.25;;;27.20;92.10;;;;;;4883359;29;20045;-83
2022/06/10 10:49:50;;;;;;;1.98;0.10;;;27.30;91.80;;;;;;4868723;29;20049;-83
2022/06/10 10:52:25;;;;;;;1.55;0.10;;;27.10;91.40;;;;;;4867858;29;20049;-81
2022/06/10 10:55:23;;;;;;;0.17;0.17;;;27.40;92.20;;;;;;4868670;29;20460;-81
2022/06/10 10:58:04;;;;;;;2.35;0.32;;;27.30;91.70;;;;;;4882389;29;20072;-81
2022/06/10 11:00:36;;;;;;;2.25;0.20;;;27.30;91.30;;;;;;4865557;29;20140;-81
2022/06/10 11:03:05;;;;;;;2.15;0.10;;;27.60;91.30;;;;;;4867942;29;20615;-81
2022/06/10 11:05:36;;;;;;;0.60;0.10;;;27.60;90.40;;;;;;4871191;29;20094;-82
2022/06/10 11:08:19;;;;;;;0.20;0.10;;;27.70;91.30;;;;;;4895737;29;20041;-82
2022/06/10 11:11:00;;;;;;;1.42;0.28;;;27.90;91.70;;;;;;4872764;29;20045;-81
2022/06/10 11:13:48;;;;;;;0.40;0.10;;;28.20;90.40;;;;;;4857441;29;20088;-81
2022/06/10 11:16:34;;;;;;;2.20;0.13;;;28.40;90.30;;;;;;4866166;29;20084;-82
2022/06/10 11:19:11;;;;;;;2.10;0.30;;;28.50;90.80;;;;;;4871513;29;20382;-82
2022/06/10 11:21:55;;;;;;;3.83;0.40;;;28.30;88.30;;;;;;4869962;29;20045;-81
2022/06/10 11:27:37;;;;;;;0.57;0.27;;;28.10;88.20;;;;;;5100151;27;20395;-82
2022/06/10 11:30:36;;;;;;;1.95;0.10;;;28.20;89.20;;;;;;5094573;28;20324;-81
2022/06/10 11:33:15;;;;;;;2.30;0.10;;;28.20;89.20;;;;;;5083185;28;20049;-80
2022/06/10 11:36:07;;;;;;;2.20;0.20;;;28.20;89.80;;;;;;5089731;28;20047;-81
2022/06/10 11:38:38;;;;;;;0.55;0.20;;;28.50;88.90;;;;;;5092548;28;20044;-81
2022/06/10 11:41:27;;;;;;;2.22;0.20;;;28.30;88.60;;;;;;5095377;28;20704;-81
2022/06/10 11:44:03;;;;;;;0.50;0.10;;;28.10;89.70;;;;;;5102970;28;20141;-80
2022/06/10 11:46:47;;;;;;;0.85;0.20;;;28.20;90.60;;;;;;5094914;28;20510;-81
2022/06/10 11:49:23;;;;;;;2.67;0.20;;;28.20;89.80;;;;;;5095578;28;20428;-81
2022/06/10 11:51:57;;;;;;;0.73;0.20;;;28.30;90.00;;;;;;5080795;28;20048;-82
2022/06/10 11:54:34;;;;;;;1.05;0.10;;;28.60;89.60;;;;;;5099867;28;20143;-82
2022/06/10 12:00:04;;;;;;;;;;;28.10;88.70;;;;;;5092680;28;20097;-82
2022/06/10 12:02:38;;;;;;;2.22;0.30;;;27.60;89.60;;;;;;5105373;28;19930;-81
2022/06/10 12:05:23;;;;;;;1.38;0.15;;;27.60;89.70;;;;;;5081466;28;20043;-80
2022/06/10 12:08:07;;;;;;;3.30;0.30;;;27.90;90.40;;;;;;5099214;28;20044;-81
2022/06/10 12:10:45;;;;;;;0.63;0.10;;;27.80;89.60;;;;;;5092756;28;20504;-82
2022/06/10 12:13:22;;;;;;;2.78;0.30;;;27.70;89.40;;;;;;5097902;28;20035;-81
2022/06/10 12:15:55;;;;;;;2.40;0.30;;;27.60;88.40;;;;;;5091870;28;20147;-82
2022/06/10 12:18:27;;;;;;;3.30;0.17;;;27.50;88.60;;;;;;5098666;28;20047;-81
2022/06/10 12:20:59;;;;;;;0.50;0.22;;;27.60;88.00;;;;;;5098124;28;20040;-82
2022/06/10 12:23:30;;;;;;;2.38;0.10;;;27.60;87.40;;;;;;5091003;28;20047;-81
2022/06/10 12:26:06;;;;;;;5.82;0.60;;;27.80;87.50;;;;;;5097234;28;20059;-82
2022/06/10 12:28:42;;;;;;;4.05;0.25;;;28.10;87.10;;;;;;5098811;28;20048;-81
2022/06/10 12:31:29;;;;;;;3.13;0.20;;;28.10;86.40;;;;;;5078374;28;20047;-80
2022/06/10 12:34:01;;;;;;;1.17;0.20;;;28.30;86.20;;;;;;5096365;28;20132;-81
2022/06/10 12:36:37;;;;;;;0.60;0.20;;;28.60;86.90;;;;;;5077869;28;20054;-82
2022/06/10 12:39:15;;;;;;;2.55;0.10;;;28.70;86.10;;;;;;5083198;28;20384;-81
2022/06/10 12:41:47;;;;;;;0.47;0.10;;;28.90;85.30;;;;;;5090160;28;20049;-81
2022/06/10 12:44:34;;;;;;;2.15;0.20;;;29.10;85.20;;;;;;5064394;28;20098;-82
2022/06/10 12:47:05;;;;;;;;;;;29.20;84.60;;;;;;5077233;28;20130;-81
2022/06/10 12:49:38;;;;;;;3.40;0.10;;;29.30;84.70;;;;;;5082521;28;19924;-82
2022/06/10 12:52:29;;;;;;;1.30;0.10;;;29.40;85.30;;;;;;5082013;28;20067;-81
2022/06/10 12:55:03;;;;;;;0.77;0.10;;;29.50;83.60;;;;;;5037434;28;20044;-81
2022/06/10 12:57:37;;;;;;;0.73;0.20;;;29.60;83.60;;;;;;5063178;28;20048;-81
2022/06/10 13:00:41;;;;;;;1.48;0.10;;;29.50;82.50;;;;;;5078755;28;20059;-82
2022/06/10 13:03:33;;;;;;;1.15;0.10;;;29.70;80.80;;;;;;5078325;28;20139;-82
2022/06/10 13:06:35;;;;;;;2.70;0.10;;;29.70;80.90;;;;;;5090611;28;20138;-81
2022/06/10 13:09:31;;;;;;;2.05;0.30;;;29.90;81.30;;;;;;5086048;28;20712;-82
2022/06/10 13:12:21;;;;;;;1.17;0.20;;;30.00;80.50;;;;;;5084514;28;20547;-81
2022/06/10 13:15:12;;;;;;;0.13;0.10;;;30.30;80.50;;;;;;5076952;28;20032;-82
2022/06/10 13:17:53;;;;;;;1.27;0.00;;;30.30;80.40;;;;;;5078633;28;20040;-82
2022/06/10 13:20:28;;;;;;;3.22;0.20;;;30.30;80.10;;;;;;5089127;28;20036;-82
2022/06/10 13:23:23;;;;;;;0.32;0.20;;;30.50;78.60;;;;;;5084636;28;20039;-79
2022/06/10 13:26:12;;;;;;;1.25;0.20;;;30.80;78.60;;;;;;5070077;28;20091;-82
2022/06/10 13:28:44;;;;;;;0.05;0.00;;;30.80;78.20;;;;;;5091519;28;20040;-82
2022/06/10 13:31:17;;;;;;;1.27;0.20;;;30.40;78.60;;;;;;5081005;28;20104;-81
2022/06/10 13:33:55;;;;;;;0.38;0.10;;;30.30;79.80;;;;;;5080925;28;20577;-81
2022/06/10 13:36:28;;;;;;;0.75;0.05;;;30.50;79.80;;;;;;5078225;28;20037;-80
2022/06/10 13:38:57;;;;;;;0.05;0.00;;;30.30;79.00;;;;;;5084223;28;20067;-81
2022/06/10 13:41:49;;;;;;;0.40;0.10;;;30.00;79.70;;;;;;5084414;28;20062;-82
2022/06/10 13:44:38;;;;;;;0.47;0.10;;;29.90;80.40;;;;;;5081848;28;20048;-82
2022/06/10 13:47:21;;;;;;;1.25;0.50;;;29.80;80.80;;;;;;5075644;28;20135;-81